Abingdon, Illinois
Current Conditions -  °F | °C
As of 9:35 PM on Sunday 23 Nov 2014 (Local Time) from KGBG Reporting Station
Moderate Fog Moderate Fog  
Wind Chill: 46°   Ceiling: 200
Heat Index: 48°   Visibility: 0.5mi
Dew Point: 48°   Wind: 5mph
Humidity: 99%   Direction: 190°S
Pressure: 29.19"   Gusts: NA
Location:  40.8°N, 90.4°W
Report Text: KGBG 240335Z AUTO 19004KT 1/2SM FG OVC002 09/09 A2919 RMK AO2 T00900089
Loading
Personal Weather Stations






























Interactive Weather Map New forecast layout! Learn more

10-Day Weather Forecast

Advertisements
Track Severe Weather on mobile